Reklama
Líbí se Vám tento web? Budeme velmi rádi, pokud přidáte hodnocení +1

Seznam meteostanic a jejich METAR

Vyhledat místa podle abecedy:
A B C D E F G H I J K L M N O P Q R S T U V W X Y Z

Filtrovat:

ID stanice:
a/nebo
Název místa (fulltext):
 
Místo (ID)Naposledy načteno 
Faro (LPFR) 21.06.2018 02:00 UTC Zobrazit METAR
LPFR 210200Z 03006KT CAVOK 21/18 Q1015
Florence (LIRQ) 21.06.2018 01:50 UTC Zobrazit METAR
LIRQ 210150Z VRB01KT CAVOK 19/15 Q1017
Foggia, Gino Lisa (LIBF) 20.06.2018 15:50 UTC Zobrazit METAR
LIBF 201550Z 10009KT 9999 FEW040 27/16 Q1017
Fort de France (TFFF) 21.06.2018 02:00 UTC Zobrazit METAR
TFFF 210200Z AUTO 09008KT 060V120 9999 FEW028 26/21 Q1017
Frankfurt/ Main (EDDF) 21.06.2018 01:50 UTC Zobrazit METAR
EDDF 210150Z 23004KT CAVOK 18/14 Q1015 NOSIG
Freetown (GFLL) 18.06.2018 12:00 UTC Zobrazit METAR
GFLL 181200Z 26008KT 9999 BKN012 27/19 Q1016 RMK CB/NE
Funafuti (NGFU) 20.06.2018 19:00 UTC Zobrazit METAR
NGFU 201900Z 10004KT 9999 FEW019 28/25 Q1011
Reklama

Počasí na Váš email

Emaily jsou bez reklamy a bez spamu



Odhlásit newsletter

Reklama


Lunární kalendář

  • 28.06.
  • 06.07.
  • 13.07.
  • 19.07.



Slunečno.cz na Google+

Reklama


Reklama
Povinné ručení
Reklama




Reklama